Stations météo

réclame
Mon MeteoGroup
Ell, Pays-Bas (6377): Température de l'air & dewpoint: 14.10.2018 19:00:00 - 20.10.2018 19:00:00 (CEST)Ell, Pays-Bas (6377): Température de l'air 5cm: 14.10.2018 19:00:00 - 20.10.2018 19:00:00 (CEST)Ell, Pays-Bas (6377): Vitesse du vent & gusts: 14.10.2018 19:00:00 - 20.10.2018 19:00:00 (CEST)Ell, Pays-Bas (6377): Direction du vent: 14.10.2018 19:00:00 - 20.10.2018 19:00:00 (CEST)Ell, Pays-Bas (6377): visibility: 14.10.2018 19:00:00 - 20.10.2018 19:00:00 (CEST)Ell, Pays-Bas (6377): Quantités de précipitations: 14.10.2018 19:00:00 - 20.10.2018 19:00:00 (CEST)
Date & Time tt [°C] td [°C] tt 5cm [°C] ff [km/h] ff [knt] fx [km/h] fx [knt] dd vv [km] rr [mm]
20.10.2018 19:00:00 9,2 5,9 5,5 4 2 7 4 E 18 -
20.10.2018 18:00:00 12,8 6,8 11,3 4 2 11 6 NNE 20 0,0
20.10.2018 17:00:00 14,5 6,4 15,5 7 4 14 8 NNE 20 0,0
20.10.2018 16:00:00 14,5 6,9 16,1 4 2 11 6 NE 23 0,0
20.10.2018 15:00:00 14,4 6,2 17,2 4 2 7 4 N 20 0,0
20.10.2018 14:00:00 13,8 6,9 16,7 4 2 7 4 E 19 0,0
20.10.2018 13:00:00 13,0 6,8 15,6 4 2 11 6 SSW 16 0,0
20.10.2018 12:00:00 11,6 8,0 14,6 4 2 7 4 E 10 0,0
20.10.2018 11:00:00 8,3 7,3 9,4 0 0 4 2 N 4,4 0,0
20.10.2018 10:00:00 5,1 5,1 4,7 0 0 4 2 N 3,6 0,0
20.10.2018 09:00:00 1,5 1,2 0,1 4 2 4 2 WNW 0,2 0,0
20.10.2018 08:00:00 1,9 1,8 -1,0 4 2 7 4 W 0,1 0,0
20.10.2018 07:00:00 2,3 2,2 -0,1 4 2 7 4 NW 0,2 0,0
20.10.2018 06:00:00 3,6 3,3 0,2 4 2 7 4 W 0,1 0,0
20.10.2018 05:00:00 3,4 3,4 0,6 0 0 7 4 N 0,1 0,0
20.10.2018 04:00:00 5,0 4,8 1,7 4 2 7 4 NNW 0,8 0,0
20.10.2018 03:00:00 5,1 4,9 2,0 4 2 7 4 N 1,0 0,0
20.10.2018 02:00:00 6,3 5,7 2,9 0 0 7 4 N 5 0,0
20.10.2018 01:00:00 8,6 6,9 6,7 7 4 11 6 NNW 12 0,0
20.10.2018 00:00:00 9,3 7,3 6,7 7 4 11 6 N 14 0,0
19.10.2018 23:00:00 8,3 7,2 3,4 7 4 14 8 NNW 8 0,0
19.10.2018 22:00:00 6,5 6,3 2,3 4 2 7 4 N 2,2 0,0
19.10.2018 21:00:00 7,5 6,6 4,3 4 2 7 4 NNW 8 0,0
19.10.2018 20:00:00 9,6 7,3 5,9 4 2 11 6 NNW 10 0,0
19.10.2018 19:00:00 10,9 8,1 8,1 4 2 11 6 NNW 12 0,0
19.10.2018 18:00:00 14,2 8,4 11,9 7 4 18 10 N 16 0,0
19.10.2018 17:00:00 15,8 9,1 15,2 4 2 14 8 NNW 16 0,0
19.10.2018 16:00:00 16,6 9,3 18,2 7 4 14 8 N 21 0,0
19.10.2018 15:00:00 16,0 9,4 19,0 7 4 14 8 NE 16 0,0
19.10.2018 14:00:00 15,1 9,9 18,7 7 4 11 6 N 14 0,0
19.10.2018 13:00:00 14,4 10,3 17,3 4 2 11 6 E 12 0,0
19.10.2018 12:00:00 13,4 9,8 16,0 7 4 11 6 E 11 0,0
19.10.2018 11:00:00 11,6 9,1 12,9 7 4 11 6 ENE 10 0,0
19.10.2018 10:00:00 10,1 8,4 10,5 7 4 11 6 NNE 10 0,0
19.10.2018 09:00:00 9,6 8,0 9,6 7 4 11 6 NNE 11 0,0
19.10.2018 08:00:00 9,6 8,0 9,4 7 4 11 6 N 11 0,0
19.10.2018 07:00:00 9,6 8,3 8,8 7 4 11 6 N 10 0,0
19.10.2018 06:00:00 10,1 8,3 9,6 4 2 11 6 N 13 0,0
19.10.2018 05:00:00 10,9 8,4 10,6 7 4 14 8 NNE 16 0,0
19.10.2018 04:00:00 11,1 8,6 11,0 7 4 14 8 NNE 23 0,0
19.10.2018 03:00:00 11,8 8,6 11,6 11 6 18 10 NNE 26 0,0
19.10.2018 02:00:00 12,6 9,2 12,3 11 6 18 10 NNE 24 0,0
19.10.2018 01:00:00 12,8 10,8 12,6 11 6 22 12 NNE 17 0,0
19.10.2018 00:00:00 13,4 10,4 13,2 14 8 25 14 NE 25 0,0
18.10.2018 23:00:00 13,6 11,1 13,4 18 10 29 16 NE 18 0,0
18.10.2018 22:00:00 13,8 10,8 13,4 11 6 18 10 NNE 19 0,0
18.10.2018 21:00:00 13,5 11,4 13,2 7 4 14 8 N 17 0,0
18.10.2018 20:00:00 13,5 11,3 13,1 7 4 14 8 NNE 22 0,0
18.10.2018 19:00:00 13,9 11,2 13,6 7 4 18 10 NNE 24 0,0
18.10.2018 18:00:00 14,1 11,7 14,1 14 8 22 12 NNE 17 0,0
18.10.2018 17:00:00 14,7 11,7 15,1 14 8 25 14 N 16 0,0
18.10.2018 16:00:00 15,5 11,7 16,0 14 8 22 12 NNE 25 0,0
18.10.2018 15:00:00 15,5 11,9 16,6 14 8 29 16 NNE 27 0,0
18.10.2018 14:00:00 17,0 11,9 19,1 14 8 25 14 NNE 23 0,0
18.10.2018 13:00:00 16,5 12,2 16,2 11 6 22 12 NNE 21 0,0
18.10.2018 12:00:00 14,8 11,7 16,3 14 8 22 12 N 22 0,0
18.10.2018 11:00:00 13,4 12,0 14,0 11 6 18 10 NNE 10 0,0
18.10.2018 10:00:00 11,9 11,0 11,6 7 4 14 8 N 7 0,0
18.10.2018 09:00:00 11,1 10,6 10,3 7 4 11 6 N 3,9 0,0
18.10.2018 08:00:00 11,5 10,9 10,0 4 2 11 6 N 4,7 0,0
18.10.2018 07:00:00 13,1 11,7 12,3 7 4 18 10 N 8 0,0
18.10.2018 06:00:00 13,8 12,1 13,6 11 6 18 10 N 9 0,0
18.10.2018 05:00:00 13,9 12,3 13,6 7 4 18 10 N 9 0,0
18.10.2018 04:00:00 13,9 12,3 13,5 7 4 14 8 N 8 0,0
18.10.2018 03:00:00 13,6 12,4 13,2 7 4 11 6 NNW 7 0,0
18.10.2018 02:00:00 13,8 12,5 13,3 7 4 11 6 NW 8 0,0
18.10.2018 01:00:00 13,6 12,5 12,9 7 4 11 6 NNW 7 0,0
18.10.2018 00:00:00 12,8 11,9 10,8 4 2 7 4 NW 6 0,0
17.10.2018 23:00:00 13,4 11,9 11,7 7 4 11 6 NNW 8 0,0
17.10.2018 22:00:00 14,1 12,0 12,2 7 4 14 8 NNW 10 0,0
17.10.2018 21:00:00 14,5 12,3 11,1 4 2 7 4 NW 10 0,0
17.10.2018 20:00:00 15,9 12,4 13,0 7 4 11 6 NNW 13 0,0
17.10.2018 19:00:00 17,2 13,0 15,1 7 4 22 12 N 13 0,0
17.10.2018 18:00:00 19,0 13,5 18,2 11 6 14 8 NNW 14 0,0
17.10.2018 17:00:00 20,5 13,1 21,1 7 4 11 6 N 15 0,0
17.10.2018 16:00:00 20,9 12,9 23,2 4 2 7 4 NNW 14 0,0
17.10.2018 15:00:00 21,3 13,2 24,6 4 2 11 6 WSW 14 0,0
17.10.2018 14:00:00 20,1 13,1 23,6 4 2 11 6 WSW 13 0,0
17.10.2018 13:00:00 18,9 13,3 22,1 7 4 14 8 W 12 0,0
17.10.2018 12:00:00 17,5 13,4 19,8 7 4 11 6 WNW 9 0,0
17.10.2018 11:00:00 14,5 12,0 15,2 7 4 14 8 WNW 6 0,0
17.10.2018 10:00:00 11,6 10,0 11,1 4 2 7 4 W 8 0,0
17.10.2018 09:00:00 7,0 6,6 5,6 4 2 7 4 W 0,8 0,0
17.10.2018 08:00:00 8,1 8,0 4,9 4 2 7 4 S 2,5 0,0
17.10.2018 07:00:00 8,0 7,5 5,8 4 2 4 2 SE 4,8 0,0
17.10.2018 06:00:00 8,3 7,6 6,7 4 2 4 2 N 7 0,0
17.10.2018 05:00:00 10,0 8,7 7,6 4 2 29 16 W 10 0,0
17.10.2018 04:00:00 10,1 9,0 6,9 4 2 4 2 E 10 0,0
17.10.2018 03:00:00 10,9 9,2 8,2 0 0 4 2 N 14 0,0
17.10.2018 02:00:00 10,0 8,3 7,0 4 2 7 4 ESE 14 0,0
17.10.2018 01:00:00 11,0 9,2 6,5 4 2 7 4 SE 14 0,0
17.10.2018 00:00:00 10,3 8,7 6,8 4 2 7 4 E 11 0,0
16.10.2018 23:00:00 11,6 9,9 6,9 4 2 7 4 SSE 12 0,0
16.10.2018 22:00:00 12,3 10,4 7,8 4 2 4 2 E 12 0,0
16.10.2018 21:00:00 13,9 10,8 8,7 4 2 4 2 ESE 14 0,0
16.10.2018 20:00:00 14,9 11,9 10,6 4 2 4 2 E 23 0,0
16.10.2018 19:00:00 18,5 11,9 15,3 4 2 7 4 E 25 0,0
16.10.2018 18:00:00 22,1 11,2 20,3 7 4 11 6 E 7 0,0
16.10.2018 17:00:00 23,2 11,6 22,9 7 4 11 6 E 11 0,0
16.10.2018 16:00:00 23,2 11,5 24,1 7 4 11 6 E 27 0,0
16.10.2018 15:00:00 22,4 14,1 23,5 7 4 11 6 E 22 0,0
16.10.2018 14:00:00 22,1 12,9 23,3 7 4 11 6 ESE 26 0,0
16.10.2018 13:00:00 21,2 11,8 23,1 7 4 11 6 SE 21 0,0
16.10.2018 12:00:00 18,7 11,4 20,9 7 4 11 6 SE 23 0,0
16.10.2018 11:00:00 16,6 11,6 18,7 7 4 11 6 SE 15 0,0
16.10.2018 10:00:00 14,7 11,7 14,6 4 2 7 4 SE 14 0,0
16.10.2018 09:00:00 10,3 10,0 9,1 4 2 4 2 ESE 7 0,0
16.10.2018 08:00:00 6,6 6,5 4,6 0 0 7 4 N 4,4 0,0
16.10.2018 07:00:00 7,2 7,1 3,6 4 2 4 2 ENE 1,5 0,0
16.10.2018 06:00:00 7,2 7,2 3,9 4 2 4 2 SE 4,6 0,0
16.10.2018 05:00:00 7,9 7,8 3,7 4 2 4 2 E 2,8 0,0
16.10.2018 04:00:00 8,0 7,9 4,1 4 2 4 2 SSE 1,1 0,0
16.10.2018 03:00:00 8,4 8,3 4,3 0 0 4 2 N 0,5 0,0
16.10.2018 02:00:00 8,6 8,0 5,1 4 2 4 2 E 6 0,0
16.10.2018 01:00:00 9,0 8,1 5,0 0 0 4 2 N 9 0,0
16.10.2018 00:00:00 10,2 8,8 5,7 4 2 4 2 SE 7 0,0
15.10.2018 23:00:00 10,3 8,6 6,5 4 2 4 2 SSE 12 0,0
15.10.2018 22:00:00 12,7 9,6 7,6 4 2 4 2 S 22 0,0
15.10.2018 21:00:00 14,2 9,6 9,0 4 2 4 2 S 1,6 0,0
15.10.2018 20:00:00 16,1 9,5 11,2 4 2 7 4 S 20 0,0
15.10.2018 19:00:00 20,2 9,1 15,0 4 2 18 10 SSW 46 0,0
15.10.2018 18:00:00 22,3 9,3 21,1 11 6 18 10 SSW 40 0,0
15.10.2018 17:00:00 24,4 11,1 24,8 7 4 22 12 S 38 0,0
15.10.2018 16:00:00 24,5 10,9 25,7 11 6 22 12 S 36 0,0
15.10.2018 15:00:00 24,9 10,6 26,0 11 6 25 14 SSW 40 0,0
15.10.2018 14:00:00 25,1 11,0 26,4 11 6 29 16 SSW 38 0,0
15.10.2018 13:00:00 24,7 10,6 26,5 18 10 32 18 SSW 32 0,0
15.10.2018 12:00:00 24,3 10,2 24,4 18 10 29 16 S 26 0,0
15.10.2018 11:00:00 21,9 10,9 23,0 18 10 25 14 S 33 0,0
15.10.2018 10:00:00 18,1 11,5 16,2 7 4 11 6 SE 31 0,0
15.10.2018 09:00:00 15,4 9,8 12,8 7 4 11 6 SE 35 0,0
15.10.2018 08:00:00 14,4 8,8 11,5 11 6 11 6 SSE 43 0,0
15.10.2018 07:00:00 14,2 8,9 10,6 7 4 14 8 SE 45 0,0
15.10.2018 06:00:00 13,3 9,0 10,7 7 4 14 8 ESE 37 0,0
15.10.2018 05:00:00 13,4 9,3 11,3 4 2 7 4 ESE 47 0,0
15.10.2018 04:00:00 14,8 8,9 11,3 7 4 11 6 SE 46 0,0
15.10.2018 03:00:00 13,1 8,3 8,7 7 4 14 8 ESE 48 0,0
15.10.2018 02:00:00 13,8 8,6 8,7 7 4 11 6 ESE 47 0,0
15.10.2018 01:00:00 14,1 9,2 9,7 7 4 7 4 ESE 43 0,0
15.10.2018 00:00:00 15,5 9,3 11,9 7 4 14 8 ESE 48 0,0
14.10.2018 23:00:00 15,3 10,1 10,4 7 4 11 6 SE 48 0,0
14.10.2018 22:00:00 17,5 10,6 12,8 7 4 14 8 SSE 50 0,0
14.10.2018 21:00:00 17,3 10,6 12,7 11 6 14 8 ESE 46 0,0
14.10.2018 20:00:00 18,9 10,7 13,2 11 6 14 8 SE 49 0,0
14.10.2018 19:00:00 21,5 10,4 16,7 7 4 14 8 SSE 43 0,0

tt = Température de l'air
td = dewpoint
tt 5cm = Température de l'air 5cm
ff = Vitesse du vent
fx = gusts
dd = Direction du vent
vv = visibility
rr = Quantités de précipitations

stations d'obs. à proximité